createdAt,value
2023-04-18T00:00:42.956Z,14.00
2023-04-18T00:01:42.986Z,15.60
2023-04-18T00:02:43.014Z,15.00
2023-04-18T00:03:43.162Z,18.80
2023-04-18T00:04:43.012Z,17.50
2023-04-18T00:05:42.903Z,16.40
2023-04-18T00:06:42.888Z,16.30
2023-04-18T00:07:42.878Z,16.90
2023-04-18T00:08:42.867Z,16.70
2023-04-18T00:09:42.931Z,14.60
2023-04-18T00:10:42.841Z,16.60
2023-04-18T00:11:42.832Z,20.10
2023-04-18T00:12:42.817Z,15.10
2023-04-18T00:13:42.809Z,17.20
2023-04-18T00:14:42.865Z,17.10
2023-04-18T00:15:42.789Z,19.30
2023-04-18T00:16:42.896Z,17.60
2023-04-18T00:17:42.796Z,16.30
2023-04-18T00:18:42.751Z,16.10
2023-04-18T00:19:42.759Z,16.50
2023-04-18T00:20:42.733Z,14.90
2023-04-18T00:21:42.722Z,17.00
2023-04-18T00:22:43.027Z,13.50
2023-04-18T00:23:42.703Z,17.00
2023-04-18T00:24:42.703Z,18.00
2023-04-18T00:25:42.693Z,14.70
2023-04-18T00:26:42.670Z,16.20
2023-04-18T00:27:42.659Z,18.00
2023-04-18T00:28:42.640Z,15.90
2023-04-18T00:29:42.655Z,18.70
2023-04-18T00:30:42.636Z,16.10
2023-04-18T00:31:42.669Z,12.80
2023-04-18T00:32:42.688Z,15.20
2023-04-18T00:33:42.592Z,13.80
2023-04-18T00:34:42.599Z,16.60
2023-04-18T00:35:42.578Z,18.40
2023-04-18T00:36:42.626Z,17.40
2023-04-18T00:37:42.595Z,16.70
2023-04-18T00:38:42.556Z,17.10
2023-04-18T00:39:42.548Z,16.90
2023-04-18T00:40:42.509Z,17.80
2023-04-18T00:41:42.512Z,15.70
2023-04-18T00:42:42.490Z,16.20
2023-04-18T00:43:42.483Z,17.50
2023-04-18T00:44:42.489Z,15.80
2023-04-18T00:45:42.464Z,18.40
2023-04-18T00:46:42.511Z,16.00
2023-04-18T00:47:42.458Z,19.80
2023-04-18T00:48:42.549Z,21.30
2023-04-18T00:49:42.433Z,18.90
2023-04-18T00:50:42.463Z,25.00
2023-04-18T00:51:42.446Z,17.10
2023-04-18T00:52:42.382Z,18.00
2023-04-18T00:53:42.378Z,21.80
2023-04-18T00:54:42.365Z,17.60
2023-04-18T00:55:42.409Z,16.40
2023-04-18T00:56:42.392Z,19.30
2023-04-18T00:57:42.394Z,14.30
2023-04-18T00:58:42.321Z,14.50
2023-04-18T00:59:42.361Z,18.40
2023-04-18T01:00:42.297Z,17.50
2023-04-18T01:01:42.344Z,17.60
2023-04-18T01:02:42.428Z,16.80
2023-04-18T01:03:42.529Z,20.00
2023-04-18T01:04:42.562Z,13.80
2023-04-18T01:05:42.241Z,18.80
2023-04-18T01:06:42.238Z,19.50
2023-04-18T01:07:42.223Z,19.20
2023-04-18T01:08:42.238Z,18.40
2023-04-18T01:09:42.203Z,17.40
2023-04-18T01:10:42.193Z,17.10
2023-04-18T01:11:42.174Z,21.00
2023-04-18T01:12:42.168Z,20.80
2023-04-18T01:13:42.221Z,19.80
2023-04-18T01:14:42.156Z,18.80
2023-04-18T01:15:42.205Z,15.00
2023-04-18T01:16:42.181Z,18.20
2023-04-18T01:17:42.146Z,20.30
2023-04-18T01:18:42.099Z,16.70
2023-04-18T01:19:42.117Z,19.80
2023-04-18T01:20:42.194Z,18.90
2023-04-18T01:21:42.099Z,15.90
2023-04-18T01:22:42.068Z,22.20
2023-04-18T01:23:42.146Z,16.00
2023-04-18T01:24:42.069Z,17.30
2023-04-18T01:25:42.024Z,18.60
2023-04-18T01:26:42.057Z,18.10
2023-04-18T01:27:42.001Z,19.30
2023-04-18T01:28:42.065Z,17.40
2023-04-18T01:29:42.014Z,20.70
2023-04-18T01:30:42.009Z,18.50
2023-04-18T01:31:42.097Z,18.30
2023-04-18T01:32:42.017Z,17.70
2023-04-18T01:33:41.990Z,18.80
2023-04-18T01:34:41.937Z,17.90
2023-04-18T01:35:41.916Z,17.20
2023-04-18T01:36:41.939Z,20.20
2023-04-18T01:37:41.893Z,19.80
2023-04-18T01:38:41.918Z,16.40
2023-04-18T01:39:41.878Z,18.50
2023-04-18T01:40:41.913Z,18.20
2023-04-18T01:41:41.848Z,21.20
2023-04-18T01:42:41.842Z,19.60
2023-04-18T01:43:41.851Z,16.40
2023-04-18T01:44:41.910Z,18.10
2023-04-18T01:45:41.841Z,18.20
2023-04-18T01:46:41.947Z,19.00
2023-04-18T01:47:41.798Z,19.20
2023-04-18T01:48:41.910Z,16.30
2023-04-18T01:49:41.861Z,20.40
2023-04-18T01:50:41.764Z,18.60
2023-04-18T01:51:41.738Z,18.10
2023-04-18T01:52:41.767Z,18.50
2023-04-18T01:53:41.786Z,21.80
2023-04-18T01:54:41.725Z,18.30
2023-04-18T01:55:41.696Z,19.00
2023-04-18T01:56:41.700Z,17.40
2023-04-18T01:57:41.665Z,25.10
2023-04-18T01:58:41.707Z,18.10
2023-04-18T01:59:41.662Z,17.00
2023-04-18T02:00:41.646Z,18.70
2023-04-18T02:01:41.628Z,18.90
2023-04-18T02:02:41.844Z,17.10
2023-04-18T02:03:41.787Z,17.50
2023-04-18T02:04:41.615Z,18.90
2023-04-18T02:05:41.588Z,16.90
2023-04-18T02:06:41.632Z,19.00
2023-04-18T02:07:41.562Z,19.40
2023-04-18T02:08:41.566Z,19.10
2023-04-18T02:09:41.551Z,18.60
2023-04-18T02:10:41.539Z,18.30
2023-04-18T02:11:41.602Z,19.70
2023-04-18T02:12:41.545Z,17.20
2023-04-18T02:13:41.512Z,21.30
2023-04-18T02:14:41.510Z,17.40
2023-04-18T02:15:41.504Z,20.40
2023-04-18T02:16:41.554Z,17.80
2023-04-18T02:17:41.678Z,20.40
2023-04-18T02:18:41.449Z,22.10
2023-04-18T02:19:41.447Z,19.90
2023-04-18T02:20:41.495Z,21.60
2023-04-18T02:21:41.420Z,21.30
2023-04-18T02:22:41.428Z,18.80
2023-04-18T02:23:41.391Z,21.00
2023-04-18T02:24:41.404Z,20.80
2023-04-18T02:25:41.440Z,18.20
2023-04-18T02:26:41.386Z,19.80
2023-04-18T02:27:41.337Z,19.30
2023-04-18T02:28:41.532Z,20.50
2023-04-18T02:29:41.351Z,24.20
2023-04-18T02:30:41.451Z,20.70
2023-04-18T02:31:41.395Z,18.10
2023-04-18T02:32:41.361Z,19.20
2023-04-18T02:33:41.298Z,21.30
2023-04-18T02:34:41.277Z,22.40
2023-04-18T02:35:41.260Z,17.40
2023-04-18T02:36:41.269Z,19.10
2023-04-18T02:37:41.238Z,15.70
2023-04-18T02:38:41.299Z,18.90
2023-04-18T02:39:41.215Z,21.10
2023-04-18T02:40:41.213Z,18.80
2023-04-18T02:41:41.194Z,19.00
2023-04-18T02:42:41.202Z,18.30
2023-04-18T02:43:41.185Z,21.40
2023-04-18T02:44:41.172Z,19.10
2023-04-18T02:45:41.267Z,18.00
2023-04-18T02:46:41.160Z,16.60
2023-04-18T02:47:53.735Z,19.80
2023-04-18T02:48:42.133Z,18.10
2023-04-18T02:49:41.109Z,18.30
2023-04-18T02:50:41.100Z,17.80
2023-04-18T02:51:41.097Z,19.40
2023-04-18T02:52:41.086Z,20.50
2023-04-18T02:53:41.084Z,18.10
2023-04-18T02:54:41.057Z,18.90
2023-04-18T02:55:41.049Z,17.70
2023-04-18T02:56:41.042Z,21.80
2023-04-18T02:57:41.017Z,19.20
2023-04-18T02:58:41.036Z,19.90
2023-04-18T02:59:41.012Z,20.30
2023-04-18T03:00:40.998Z,17.30
2023-04-18T03:01:41.097Z,16.50
2023-04-18T03:02:41.113Z,19.90
2023-04-18T03:03:40.965Z,19.20
2023-04-18T03:04:40.988Z,22.70
2023-04-18T03:05:40.934Z,20.90
2023-04-18T03:06:40.944Z,21.30
2023-04-18T03:07:41.081Z,21.00
2023-04-18T03:08:40.954Z,18.00
2023-04-18T03:09:40.966Z,17.50
2023-04-18T03:10:40.874Z,19.00
2023-04-18T03:11:40.868Z,18.40
2023-04-18T03:12:40.846Z,17.70
2023-04-18T03:13:40.902Z,19.90
2023-04-18T03:14:40.832Z,18.70
2023-04-18T03:15:40.835Z,17.70
2023-04-18T03:16:40.817Z,19.10
2023-04-18T03:17:40.848Z,17.60
2023-04-18T03:18:40.809Z,21.40
2023-04-18T03:19:40.789Z,19.80
2023-04-18T03:20:40.798Z,18.60
2023-04-18T03:21:40.756Z,18.60
2023-04-18T03:22:40.748Z,21.00
2023-04-18T03:23:40.749Z,18.20
2023-04-18T03:24:40.801Z,18.10
2023-04-18T03:25:40.738Z,16.70
2023-04-18T03:26:40.730Z,17.80
2023-04-18T03:27:40.690Z,22.30
2023-04-18T03:28:40.691Z,17.40
2023-04-18T03:29:40.720Z,17.70
2023-04-18T03:30:40.650Z,17.90
2023-04-18T03:31:40.765Z,19.00
2023-04-18T03:32:40.682Z,16.80
2023-04-18T03:33:40.652Z,19.20
2023-04-18T03:34:40.633Z,18.90
2023-04-18T03:35:40.613Z,15.60
2023-04-18T03:36:40.588Z,17.80
2023-04-18T03:37:40.595Z,19.50
2023-04-18T03:38:40.597Z,18.90
2023-04-18T03:39:40.638Z,18.00
2023-04-18T03:40:40.565Z,19.30
2023-04-18T03:41:40.548Z,19.30
2023-04-18T03:42:40.524Z,21.00
2023-04-18T03:43:40.535Z,19.00
2023-04-18T03:44:40.501Z,17.10
2023-04-18T03:45:40.499Z,21.00
2023-04-18T03:46:40.544Z,16.90
2023-04-18T03:47:40.550Z,18.30
2023-04-18T03:48:40.485Z,16.80
2023-04-18T03:49:40.540Z,19.30
2023-04-18T03:50:40.516Z,20.20
2023-04-18T03:51:40.428Z,18.10
2023-04-18T03:52:40.448Z,18.50
2023-04-18T03:53:40.457Z,21.30
2023-04-18T03:54:40.392Z,20.30
2023-04-18T03:55:40.393Z,19.20
2023-04-18T03:56:40.379Z,17.40
2023-04-18T03:57:41.406Z,16.70
2023-04-18T03:58:40.413Z,20.40
2023-04-18T03:59:40.353Z,18.10
2023-04-18T04:00:40.349Z,17.60
2023-04-18T04:01:40.368Z,20.40
2023-04-18T04:02:40.496Z,18.90
2023-04-18T04:03:40.551Z,19.10
2023-04-18T04:04:40.350Z,21.40
2023-04-18T04:05:40.291Z,18.80
2023-04-18T04:06:40.291Z,19.20
2023-04-18T04:07:40.295Z,22.40
2023-04-18T04:08:40.325Z,17.00
2023-04-18T04:09:40.236Z,17.40
2023-04-18T04:10:40.236Z,16.60
2023-04-18T04:11:40.219Z,17.60
2023-04-18T04:12:40.293Z,17.20
2023-04-18T04:13:40.218Z,19.40
2023-04-18T04:14:40.184Z,19.90
2023-04-18T04:15:40.199Z,18.10
2023-04-18T04:16:40.244Z,17.20
2023-04-18T04:17:40.227Z,18.20
2023-04-18T04:18:40.305Z,19.90
2023-04-18T04:19:40.196Z,19.30
2023-04-18T04:20:40.153Z,20.10
2023-04-18T04:21:40.106Z,23.00
2023-04-18T04:22:40.126Z,20.40
2023-04-18T04:23:40.118Z,19.40
2023-04-18T04:24:40.177Z,17.40
2023-04-18T04:25:40.123Z,19.50
2023-04-18T04:26:40.134Z,17.70
2023-04-18T04:27:40.038Z,20.40
2023-04-18T04:28:40.082Z,19.50
2023-04-18T04:29:40.029Z,17.50
2023-04-18T04:30:40.016Z,17.50
2023-04-18T04:31:40.023Z,20.10
2023-04-18T04:32:40.031Z,17.40
2023-04-18T04:33:39.986Z,16.20
2023-04-18T04:34:39.965Z,17.70
2023-04-18T04:35:39.961Z,14.80
2023-04-18T04:36:39.948Z,19.70
2023-04-18T04:37:39.976Z,19.40
2023-04-18T04:38:39.944Z,14.70
2023-04-18T04:39:40.006Z,18.00
2023-04-18T04:40:39.995Z,17.70
2023-04-18T04:41:39.888Z,18.00
2023-04-18T04:42:39.872Z,20.70
2023-04-18T04:43:39.954Z,22.90
2023-04-18T04:44:39.925Z,16.30
2023-04-18T04:45:39.845Z,16.20
2023-04-18T04:46:39.829Z,17.80
2023-04-18T04:47:39.864Z,14.40
2023-04-18T04:48:39.814Z,18.70
2023-04-18T04:49:39.804Z,22.20
2023-04-18T04:50:39.790Z,19.40
2023-04-18T04:51:39.783Z,17.50
2023-04-18T04:52:39.816Z,15.10
2023-04-18T04:53:39.780Z,19.90
2023-04-18T04:54:39.736Z,18.40
2023-04-18T04:55:39.734Z,19.00
2023-04-18T04:56:39.719Z,15.90
2023-04-18T04:57:39.712Z,17.70
2023-04-18T04:58:39.829Z,18.30
2023-04-18T04:59:39.723Z,15.60
2023-04-18T05:00:39.683Z,14.90
2023-04-18T05:01:39.700Z,19.90
2023-04-18T05:02:39.817Z,21.80
2023-04-18T05:03:39.991Z,16.70
2023-04-18T05:04:39.773Z,20.80
2023-04-18T05:05:39.639Z,16.70
2023-04-18T05:06:40.386Z,18.70
2023-04-18T05:07:39.653Z,17.40
2023-04-18T05:08:39.590Z,14.40
2023-04-18T05:09:39.638Z,18.80
2023-04-18T05:10:39.639Z,17.30
2023-04-18T05:11:39.642Z,17.80
2023-04-18T05:12:39.572Z,16.00
2023-04-18T05:13:39.538Z,16.00
2023-04-18T05:14:39.593Z,20.20
2023-04-18T05:15:39.525Z,18.50
2023-04-18T05:16:39.551Z,19.80
2023-04-18T05:17:39.525Z,20.80
2023-04-18T05:18:39.501Z,20.50
2023-04-18T05:19:39.484Z,18.00
2023-04-18T05:20:39.510Z,18.80
2023-04-18T05:21:39.448Z,16.80
2023-04-18T05:22:39.438Z,17.80
2023-04-18T05:23:39.443Z,17.80
2023-04-18T05:24:39.410Z,17.70
2023-04-18T05:25:39.420Z,20.90
2023-04-18T05:26:39.410Z,22.30
2023-04-18T05:27:39.436Z,15.70
2023-04-18T05:28:39.389Z,18.20
2023-04-18T05:29:39.359Z,16.70
2023-04-18T05:30:39.392Z,20.70
2023-04-18T05:31:39.368Z,19.80
2023-04-18T05:32:39.408Z,20.80
2023-04-18T05:33:39.322Z,19.10
2023-04-18T05:34:39.300Z,18.30
2023-04-18T05:35:39.297Z,18.00
2023-04-18T05:36:39.298Z,22.60
2023-04-18T05:37:39.344Z,19.60
2023-04-18T05:38:39.256Z,23.00
2023-04-18T05:39:39.255Z,20.10
2023-04-18T05:40:39.251Z,23.00
2023-04-18T05:41:39.230Z,22.50
2023-04-18T05:42:39.243Z,22.50
2023-04-18T05:43:39.279Z,19.10
2023-04-18T05:44:39.206Z,21.60
2023-04-18T05:45:39.191Z,20.30
2023-04-18T05:46:39.413Z,24.70
2023-04-18T05:47:39.301Z,19.70
2023-04-18T05:48:39.237Z,19.50
2023-04-18T05:49:39.158Z,21.70
2023-04-18T05:50:39.136Z,21.40
2023-04-18T05:51:39.115Z,21.60
2023-04-18T05:52:39.249Z,20.90
2023-04-18T05:53:39.135Z,25.00
2023-04-18T05:54:39.097Z,20.20
2023-04-18T05:55:39.076Z,21.60
2023-04-18T05:56:39.071Z,22.60
2023-04-18T05:57:39.127Z,22.90
2023-04-18T05:58:39.161Z,26.00
2023-04-18T05:59:39.033Z,23.00
2023-04-18T06:00:39.025Z,20.20
2023-04-18T06:01:39.028Z,21.40
2023-04-18T06:02:39.151Z,21.00
2023-04-18T06:03:39.152Z,29.40
2023-04-18T06:04:39.098Z,19.70
2023-04-18T06:05:39.088Z,17.60
2023-04-18T06:06:38.998Z,24.00
2023-04-18T06:07:38.998Z,20.00
2023-04-18T06:08:39.001Z,22.00
2023-04-18T06:09:39.025Z,24.10
2023-04-18T06:10:39.214Z,24.90
2023-04-18T06:11:39.007Z,19.60
2023-04-18T06:12:38.998Z,22.20
2023-04-18T06:13:38.882Z,19.20
2023-04-18T06:14:38.911Z,21.10
2023-04-18T06:15:38.977Z,21.30
2023-04-18T06:16:39.076Z,21.80
2023-04-18T06:17:38.937Z,18.80
2023-04-18T06:18:38.849Z,22.10
2023-04-18T06:19:38.834Z,17.90
2023-04-18T06:20:38.811Z,19.00
2023-04-18T06:21:38.793Z,18.10
2023-04-18T06:22:38.816Z,17.90
2023-04-18T06:23:38.811Z,18.00
2023-04-18T06:24:38.750Z,17.10
2023-04-18T06:25:38.763Z,17.60
2023-04-18T06:26:38.765Z,17.90
2023-04-18T06:27:38.770Z,18.40
2023-04-18T06:28:38.719Z,18.30
2023-04-18T06:29:38.708Z,16.40
2023-04-18T06:30:38.691Z,18.90
2023-04-18T06:31:38.720Z,18.50
2023-04-18T06:32:38.726Z,18.50
2023-04-18T06:33:38.662Z,19.30
2023-04-18T06:34:38.671Z,18.00
2023-04-18T06:35:38.646Z,15.80
2023-04-18T06:36:38.631Z,19.10
2023-04-18T06:37:38.633Z,16.70
2023-04-18T06:38:38.620Z,15.80
2023-04-18T06:39:38.601Z,15.90
2023-04-18T06:40:38.695Z,18.30
2023-04-18T06:41:38.600Z,14.60
2023-04-18T06:42:38.592Z,15.90
2023-04-18T06:43:38.578Z,17.40
2023-04-18T06:44:38.563Z,17.50
2023-04-18T06:45:38.616Z,17.90
2023-04-18T06:46:38.589Z,15.60
2023-04-18T06:47:38.563Z,12.40
2023-04-18T06:48:38.535Z,15.00
2023-04-18T06:49:38.541Z,14.80
2023-04-18T06:50:38.517Z,15.90
2023-04-18T06:51:38.512Z,15.80
2023-04-18T06:52:38.542Z,15.40
2023-04-18T06:53:38.510Z,14.40
2023-04-18T06:54:38.435Z,15.00
2023-04-18T06:55:38.416Z,13.80
2023-04-18T06:56:38.418Z,14.80
2023-04-18T06:57:38.412Z,13.40
2023-04-18T06:58:38.383Z,15.00
2023-04-18T06:59:38.391Z,14.30
2023-04-18T07:00:38.362Z,12.60
2023-04-18T07:01:38.510Z,12.90
2023-04-18T07:02:38.583Z,16.40
2023-04-18T07:03:38.362Z,14.20
2023-04-18T07:04:38.395Z,13.00
2023-04-18T07:05:38.329Z,14.20
2023-04-18T07:06:38.290Z,15.40
2023-04-18T07:07:38.301Z,14.70
2023-04-18T07:08:38.286Z,12.20
2023-04-18T07:09:38.260Z,13.50
2023-04-18T07:10:38.252Z,14.30
2023-04-18T07:11:38.249Z,12.20
2023-04-18T07:12:38.232Z,13.50
2023-04-18T07:13:38.252Z,11.40
2023-04-18T07:14:38.279Z,16.60
2023-04-18T07:15:38.211Z,15.00
2023-04-18T07:16:38.251Z,14.10
2023-04-18T07:17:38.258Z,14.60
2023-04-18T07:18:38.714Z,13.00
2023-04-18T07:19:38.153Z,13.00
2023-04-18T07:20:38.186Z,14.00
2023-04-18T07:21:38.128Z,11.90
2023-04-18T07:22:38.133Z,12.80
2023-04-18T07:23:38.130Z,12.50
2023-04-18T07:24:38.212Z,11.50
2023-04-18T07:25:38.083Z,13.70
2023-04-18T07:26:38.067Z,12.80
2023-04-18T07:27:38.076Z,13.00
2023-04-18T07:28:38.054Z,14.50
2023-04-18T07:29:38.051Z,13.90
2023-04-18T07:30:38.101Z,11.90
2023-04-18T07:31:38.016Z,12.80
2023-04-18T07:32:38.216Z,11.70
2023-04-18T07:33:38.018Z,10.10
2023-04-18T07:34:38.038Z,10.30
2023-04-18T07:35:37.978Z,9.30
2023-04-18T07:36:37.951Z,9.30
2023-04-18T07:37:38.042Z,9.70
2023-04-18T07:38:37.941Z,10.60
2023-04-18T07:39:37.932Z,8.90
2023-04-18T07:40:37.914Z,9.20
2023-04-18T07:41:37.906Z,10.00
2023-04-18T07:42:37.908Z,11.30
2023-04-18T07:43:37.890Z,11.70
2023-04-18T07:44:37.889Z,11.70
2023-04-18T07:45:37.870Z,9.70
2023-04-18T07:46:37.939Z,9.80
2023-04-18T07:47:37.900Z,9.80
2023-04-18T07:48:37.831Z,9.20
2023-04-18T07:49:37.815Z,10.30
2023-04-18T07:50:37.886Z,9.80
2023-04-18T07:51:37.852Z,9.60
2023-04-18T07:52:39.325Z,10.60
2023-04-18T07:53:38.000Z,10.70
2023-04-18T07:54:37.767Z,8.20
2023-04-18T07:55:37.757Z,12.60
2023-04-18T07:56:37.770Z,9.60
2023-04-18T07:57:37.741Z,9.20
2023-04-18T07:58:37.733Z,9.60
2023-04-18T07:59:37.719Z,9.60
2023-04-18T08:00:37.701Z,9.70
2023-04-18T08:01:37.700Z,10.10
2023-04-18T08:02:37.800Z,9.10
2023-04-18T08:03:37.757Z,10.50
2023-04-18T08:04:37.878Z,9.70
2023-04-18T08:05:37.859Z,9.10
2023-04-18T08:06:37.632Z,9.80
2023-04-18T08:07:37.653Z,8.90
2023-04-18T08:08:37.735Z,10.00
2023-04-18T08:09:37.606Z,10.00
2023-04-18T08:10:37.597Z,8.10
2023-04-18T08:11:37.599Z,8.40
2023-04-18T08:12:37.609Z,9.20
2023-04-18T08:13:37.561Z,9.60
2023-04-18T08:14:37.546Z,9.60
2023-04-18T08:15:37.551Z,9.70
2023-04-18T08:16:37.614Z,10.00
2023-04-18T08:17:37.631Z,9.10
2023-04-18T08:18:37.520Z,9.40
2023-04-18T08:19:37.507Z,7.80
2023-04-18T08:20:37.485Z,9.80
2023-04-18T08:21:37.482Z,9.50
2023-04-18T08:22:46.798Z,8.60
2023-04-18T08:23:38.553Z,8.30
2023-04-18T08:24:37.438Z,9.80
2023-04-18T08:25:37.438Z,9.40
2023-04-18T08:26:37.461Z,7.50
2023-04-18T08:27:37.418Z,8.60
2023-04-18T08:28:37.404Z,8.90
2023-04-18T08:29:37.394Z,9.80
2023-04-18T08:30:37.373Z,8.90
2023-04-18T08:31:37.387Z,9.00
2023-04-18T08:32:37.431Z,10.00
2023-04-18T08:33:37.346Z,8.50
2023-04-18T08:34:37.374Z,8.90
2023-04-18T08:35:37.326Z,8.90
2023-04-18T08:36:37.315Z,9.40
2023-04-18T08:37:37.327Z,7.90
2023-04-18T08:38:37.300Z,10.20
2023-04-18T08:39:37.277Z,8.80
2023-04-18T08:40:37.270Z,8.60
2023-04-18T08:41:37.293Z,10.20
2023-04-18T08:42:37.255Z,8.90
2023-04-18T08:43:37.258Z,10.70
2023-04-18T08:44:37.232Z,7.80
2023-04-18T08:45:37.242Z,9.50
2023-04-18T08:46:37.202Z,10.10
2023-04-18T08:47:37.236Z,10.00
2023-04-18T08:48:37.193Z,9.30
2023-04-18T08:49:37.194Z,10.60
2023-04-18T08:50:37.159Z,8.60
2023-04-18T08:51:37.141Z,7.90
2023-04-18T08:52:37.142Z,9.60
2023-04-18T08:53:37.139Z,9.80
2023-04-18T08:54:37.104Z,9.50
2023-04-18T08:55:37.125Z,8.70
2023-04-18T08:56:37.107Z,8.40
2023-04-18T08:57:37.091Z,9.10
2023-04-18T08:58:37.085Z,10.20
2023-04-18T08:59:37.077Z,8.60
2023-04-18T09:00:37.036Z,8.30
2023-04-18T09:01:37.140Z,11.00
2023-04-18T09:02:37.055Z,10.50
2023-04-18T09:03:37.250Z,9.50
2023-04-18T09:04:37.097Z,9.90
2023-04-18T09:05:36.999Z,9.80
2023-04-18T09:06:37.026Z,8.80
2023-04-18T09:07:36.980Z,10.50
2023-04-18T09:08:36.964Z,7.90
2023-04-18T09:09:36.992Z,9.70
2023-04-18T09:10:36.936Z,8.30
2023-04-18T09:11:36.918Z,9.80
2023-04-18T09:12:36.925Z,8.30
2023-04-18T09:13:36.913Z,8.20
2023-04-18T09:14:36.895Z,9.00
2023-04-18T09:15:36.877Z,8.30
2023-04-18T09:16:36.885Z,7.90
2023-04-18T09:17:36.909Z,9.30
2023-04-18T09:18:36.880Z,7.60
2023-04-18T09:19:36.844Z,9.30
2023-04-18T09:20:36.844Z,8.30
2023-04-18T09:21:36.798Z,9.30
2023-04-18T09:22:37.955Z,9.70
2023-04-18T09:23:36.791Z,8.30
2023-04-18T09:24:36.769Z,8.00
2023-04-18T09:25:37.502Z,8.20
2023-04-18T09:26:36.762Z,8.00
2023-04-18T09:27:36.854Z,9.60
2023-04-18T09:28:36.738Z,7.90
2023-04-18T09:29:36.724Z,9.40
2023-04-18T09:30:36.764Z,10.10
2023-04-18T09:31:36.702Z,7.10
2023-04-18T09:32:36.787Z,9.00
2023-04-18T09:33:36.684Z,7.20
2023-04-18T09:34:36.759Z,8.30
2023-04-18T09:35:36.666Z,8.80
2023-04-18T09:36:36.650Z,7.90
2023-04-18T09:37:36.645Z,6.90
2023-04-18T09:38:36.625Z,8.30
2023-04-18T09:39:36.596Z,7.40
2023-04-18T09:40:36.608Z,10.10
2023-04-18T09:41:36.582Z,8.50
2023-04-18T09:42:36.587Z,7.90
2023-04-18T09:43:36.560Z,9.60
2023-04-18T09:44:36.555Z,7.30
2023-04-18T09:45:36.531Z,7.70
2023-04-18T09:46:36.572Z,9.10
2023-04-18T09:47:36.786Z,8.00
2023-04-18T09:48:36.512Z,7.20
2023-04-18T09:49:36.515Z,7.20
2023-04-18T09:50:36.489Z,7.70
2023-04-18T09:51:36.466Z,6.90
2023-04-18T09:52:36.474Z,7.80
2023-04-18T09:53:36.446Z,7.60
2023-04-18T09:54:36.476Z,9.00
2023-04-18T09:55:36.455Z,7.50
2023-04-18T09:56:36.438Z,7.60
2023-04-18T09:57:36.410Z,7.70
2023-04-18T09:58:36.398Z,6.60
2023-04-18T09:59:36.379Z,11.00
2023-04-18T10:00:36.366Z,7.20
2023-04-18T10:01:36.477Z,7.70
2023-04-18T10:02:36.437Z,7.30
2023-04-18T10:03:36.419Z,8.20
2023-04-18T10:04:36.355Z,8.10
2023-04-18T10:05:36.378Z,7.70
2023-04-18T10:06:36.311Z,7.80
2023-04-18T10:07:36.289Z,7.10
2023-04-18T10:08:36.282Z,7.80
2023-04-18T10:09:36.283Z,7.50
2023-04-18T10:10:37.517Z,7.70
2023-04-18T10:11:36.291Z,7.10
2023-04-18T10:12:36.239Z,7.50
2023-04-18T10:13:36.227Z,6.70
2023-04-18T10:14:36.211Z,7.30
2023-04-18T10:15:36.292Z,6.20
2023-04-18T10:16:36.539Z,7.50
2023-04-18T10:17:36.200Z,7.30
2023-04-18T10:18:36.224Z,7.00
2023-04-18T10:19:36.170Z,7.10
2023-04-18T10:20:36.292Z,6.60
2023-04-18T10:21:36.168Z,7.00
2023-04-18T10:22:36.114Z,7.30
2023-04-18T10:23:36.191Z,7.80
2023-04-18T10:24:36.097Z,7.00
2023-04-18T10:25:36.100Z,7.80
2023-04-18T10:26:36.098Z,7.10
2023-04-18T10:27:36.067Z,8.50
2023-04-18T10:28:36.053Z,9.40
2023-04-18T10:29:36.049Z,8.30
2023-04-18T10:30:36.032Z,6.90
2023-04-18T10:31:36.086Z,7.30
2023-04-18T10:32:36.059Z,7.50
2023-04-18T10:33:36.910Z,7.20
2023-04-18T10:34:36.993Z,7.80
2023-04-18T10:35:36.032Z,6.60
2023-04-18T10:36:35.980Z,6.80
2023-04-18T10:37:35.959Z,6.10
2023-04-18T10:38:35.951Z,7.20
2023-04-18T10:39:35.937Z,7.70
2023-04-18T10:40:35.947Z,6.60
2023-04-18T10:41:35.936Z,7.50
2023-04-18T10:42:35.899Z,6.80
2023-04-18T10:43:35.900Z,7.20
2023-04-18T10:44:35.877Z,6.90
2023-04-18T10:45:35.869Z,7.50
2023-04-18T10:46:35.899Z,8.80
2023-04-18T10:47:36.108Z,9.80
2023-04-18T10:49:36.559Z,7.20
2023-04-18T10:50:35.813Z,6.20
2023-04-18T10:51:35.870Z,6.40
2023-04-18T10:52:35.876Z,7.00
2023-04-18T10:53:35.792Z,6.20
2023-04-18T10:54:35.857Z,7.80
2023-04-18T10:55:35.769Z,6.80
2023-04-18T10:56:35.794Z,6.70
2023-04-18T10:57:35.807Z,6.50
2023-04-18T10:58:35.735Z,7.50
2023-04-18T10:59:35.734Z,6.80
2023-04-18T11:00:35.725Z,7.60
2023-04-18T11:01:35.782Z,7.00
2023-04-18T11:02:35.793Z,7.80
2023-04-18T11:03:35.844Z,7.00
2023-04-18T11:04:35.761Z,6.90
2023-04-18T11:05:35.677Z,6.50
2023-04-18T11:06:35.663Z,6.50
2023-04-18T11:07:35.651Z,8.20
2023-04-18T11:08:35.742Z,7.10
2023-04-18T11:09:35.631Z,8.60
2023-04-18T11:10:35.693Z,7.20
2023-04-18T11:11:35.628Z,7.30
2023-04-18T11:12:36.381Z,6.50
2023-04-18T11:13:35.575Z,7.00
2023-04-18T11:14:35.642Z,6.40
2023-04-18T11:15:35.585Z,8.50
2023-04-18T11:16:35.638Z,5.80
2023-04-18T11:17:35.610Z,9.50
2023-04-18T11:18:35.554Z,6.10
2023-04-18T11:19:35.508Z,6.00
2023-04-18T11:20:35.495Z,8.20
2023-04-18T11:21:35.496Z,7.90
2023-04-18T11:22:35.581Z,7.20
2023-04-18T11:23:35.481Z,6.90
2023-04-18T11:24:35.444Z,7.70
2023-04-18T11:25:35.447Z,10.50
2023-04-18T11:26:36.210Z,8.20
2023-04-18T11:27:35.427Z,7.20
2023-04-18T11:28:35.413Z,9.00
2023-04-18T11:29:35.426Z,8.70
2023-04-18T11:30:35.380Z,9.40
2023-04-18T11:31:35.414Z,7.80
2023-04-18T11:32:35.436Z,7.80
2023-04-18T11:33:35.373Z,7.70
2023-04-18T11:34:35.342Z,7.10
2023-04-18T11:35:35.419Z,9.20
2023-04-18T11:36:35.324Z,7.50
2023-04-18T11:37:35.324Z,7.50
2023-04-18T11:38:35.321Z,8.30
2023-04-18T11:39:35.351Z,9.50
2023-04-18T11:40:35.324Z,7.70
2023-04-18T11:41:35.284Z,8.00
2023-04-18T11:42:35.254Z,8.20
2023-04-18T11:43:35.294Z,9.30
2023-04-18T11:44:36.219Z,8.40
2023-04-18T11:45:35.234Z,9.30
2023-04-18T11:46:35.310Z,7.90
2023-04-18T11:47:35.246Z,9.10
2023-04-18T11:48:35.190Z,7.60
2023-04-18T11:49:35.179Z,9.30
2023-04-18T11:50:35.182Z,7.90
2023-04-18T11:51:35.192Z,7.90
2023-04-18T11:52:35.207Z,8.40
2023-04-18T11:53:35.151Z,9.30
2023-04-18T11:54:35.129Z,7.40
2023-04-18T11:55:35.135Z,7.90
2023-04-18T11:56:36.783Z,6.10
2023-04-18T11:57:35.093Z,7.40
2023-04-18T11:58:35.085Z,6.50
2023-04-18T11:59:35.071Z,6.50
2023-04-18T12:00:35.090Z,6.00
2023-04-18T12:01:35.078Z,7.60
2023-04-18T12:02:35.118Z,7.40
2023-04-18T12:03:35.207Z,7.80
2023-04-18T12:04:35.141Z,6.80
2023-04-18T12:05:35.299Z,9.00
2023-04-18T12:06:35.010Z,6.10
2023-04-18T12:07:35.012Z,6.10
2023-04-18T12:08:34.985Z,6.40
2023-04-18T12:09:35.046Z,8.10
2023-04-18T12:10:35.255Z,7.30
2023-04-18T12:11:34.936Z,7.60
2023-04-18T12:12:34.924Z,6.40
2023-04-18T12:13:34.931Z,5.90
2023-04-18T12:14:34.961Z,6.30
2023-04-18T12:15:35.089Z,6.50
2023-04-18T12:16:34.956Z,7.00
2023-04-18T12:17:34.933Z,7.00
2023-04-18T12:18:34.865Z,7.50
2023-04-18T12:19:34.884Z,7.90
2023-04-18T12:20:35.176Z,6.80
2023-04-18T12:21:34.828Z,6.80
2023-04-18T12:22:34.816Z,5.80
2023-04-18T12:23:34.808Z,6.10
2023-04-18T12:24:34.827Z,6.40
2023-04-18T12:25:34.824Z,6.10
2023-04-18T12:26:34.849Z,6.20
2023-04-18T12:27:34.761Z,6.20
2023-04-18T12:28:34.791Z,6.40
2023-04-18T12:29:34.745Z,5.30
2023-04-18T12:30:37.399Z,5.60
2023-04-18T12:31:34.914Z,6.60
2023-04-18T12:32:34.730Z,5.40
2023-04-18T12:33:34.702Z,5.50
2023-04-18T12:34:34.721Z,6.90
2023-04-18T12:35:34.747Z,5.40
2023-04-18T12:36:34.741Z,6.50
2023-04-18T12:37:34.694Z,5.20
2023-04-18T12:38:34.652Z,5.30
2023-04-18T12:39:34.652Z,6.20
2023-04-18T12:40:34.645Z,5.10
2023-04-18T12:41:34.703Z,5.90
2023-04-18T12:42:34.593Z,5.00
2023-04-18T12:43:34.597Z,5.00
2023-04-18T12:44:34.573Z,4.90
2023-04-18T12:45:34.581Z,6.40
2023-04-18T12:46:34.704Z,5.20
2023-04-18T12:47:34.602Z,4.80
2023-04-18T12:48:34.612Z,5.70
2023-04-18T12:49:34.536Z,5.20
2023-04-18T12:50:34.538Z,5.60
2023-04-18T12:51:34.565Z,4.60
2023-04-18T12:52:34.505Z,5.10
2023-04-18T12:53:34.485Z,4.50
2023-04-18T12:54:35.600Z,4.30
2023-04-18T12:55:34.494Z,5.20
2023-04-18T12:56:34.444Z,4.90
2023-04-18T12:57:34.480Z,5.30
2023-04-18T12:58:34.427Z,5.50
2023-04-18T12:59:34.418Z,6.90
2023-04-18T13:00:34.455Z,5.40
2023-04-18T13:01:34.509Z,5.30
2023-04-18T13:02:34.513Z,5.40
2023-04-18T13:03:34.463Z,6.30